sensor_id;sensor_type;location;lat;lon;timestamp;temperature;humidity
9723;DHT22;4900;49.306;8.500;2024-02-28T00:01:49;6.87;75.04
9723;DHT22;4900;49.306;8.500;2024-02-28T00:04:15;6.87;74.90
9723;DHT22;4900;49.306;8.500;2024-02-28T00:06:40;6.82;74.82
9723;DHT22;4900;49.306;8.500;2024-02-28T00:09:06;6.84;74.65
9723;DHT22;4900;49.306;8.500;2024-02-28T00:11:31;6.78;74.41
9723;DHT22;4900;49.306;8.500;2024-02-28T00:13:57;6.71;74.18
9723;DHT22;4900;49.306;8.500;2024-02-28T00:16:25;6.68;74.10
9723;DHT22;4900;49.306;8.500;2024-02-28T00:18:50;6.61;74.07
9723;DHT22;4900;49.306;8.500;2024-02-28T00:21:16;6.54;74.40
9723;DHT22;4900;49.306;8.500;2024-02-28T00:23:42;6.48;74.52
9723;DHT22;4900;49.306;8.500;2024-02-28T00:26:07;6.44;74.63
9723;DHT22;4900;49.306;8.500;2024-02-28T00:28:32;6.38;74.84
9723;DHT22;4900;49.306;8.500;2024-02-28T00:30:58;6.36;75.24
9723;DHT22;4900;49.306;8.500;2024-02-28T00:33:23;6.36;75.48
9723;DHT22;4900;49.306;8.500;2024-02-28T00:35:49;6.36;75.53
9723;DHT22;4900;49.306;8.500;2024-02-28T00:38:14;6.33;75.55
9723;DHT22;4900;49.306;8.500;2024-02-28T00:40:39;6.30;75.59
9723;DHT22;4900;49.306;8.500;2024-02-28T00:43:05;6.30;75.85
9723;DHT22;4900;49.306;8.500;2024-02-28T00:45:30;6.26;75.91
9723;DHT22;4900;49.306;8.500;2024-02-28T00:47:56;6.23;76.07
9723;DHT22;4900;49.306;8.500;2024-02-28T00:50:21;6.22;76.02
9723;DHT22;4900;49.306;8.500;2024-02-28T00:52:47;6.20;76.20
9723;DHT22;4900;49.306;8.500;2024-02-28T00:55:12;6.19;76.35
9723;DHT22;4900;49.306;8.500;2024-02-28T00:57:37;6.16;76.25
9723;DHT22;4900;49.306;8.500;2024-02-28T01:00:03;6.19;76.08
9723;DHT22;4900;49.306;8.500;2024-02-28T01:02:31;6.13;75.92
9723;DHT22;4900;49.306;8.500;2024-02-28T01:04:57;6.15;75.63
9723;DHT22;4900;49.306;8.500;2024-02-28T01:07:22;6.13;75.48
9723;DHT22;4900;49.306;8.500;2024-02-28T01:09:48;6.09;75.50
9723;DHT22;4900;49.306;8.500;2024-02-28T01:12:13;6.03;75.74
9723;DHT22;4900;49.306;8.500;2024-02-28T01:14:38;5.99;75.95
9723;DHT22;4900;49.306;8.500;2024-02-28T01:17:04;5.98;75.95
9723;DHT22;4900;49.306;8.500;2024-02-28T01:19:29;5.97;75.97
9723;DHT22;4900;49.306;8.500;2024-02-28T01:21:55;5.92;76.52
9723;DHT22;4900;49.306;8.500;2024-02-28T01:24:21;5.89;76.92
9723;DHT22;4900;49.306;8.500;2024-02-28T01:26:47;5.88;77.29
9723;DHT22;4900;49.306;8.500;2024-02-28T01:29:12;5.91;77.38
9723;DHT22;4900;49.306;8.500;2024-02-28T01:31:37;5.88;77.56
9723;DHT22;4900;49.306;8.500;2024-02-28T01:34:04;5.84;77.68
9723;DHT22;4900;49.306;8.500;2024-02-28T01:36:29;5.85;77.78
9723;DHT22;4900;49.306;8.500;2024-02-28T01:38:54;5.87;77.63
9723;DHT22;4900;49.306;8.500;2024-02-28T01:41:20;5.87;77.65
9723;DHT22;4900;49.306;8.500;2024-02-28T01:43:45;5.85;77.52
9723;DHT22;4900;49.306;8.500;2024-02-28T01:46:29;5.84;77.31
9723;DHT22;4900;49.306;8.500;2024-02-28T01:48:56;5.84;77.06
9723;DHT22;4900;49.306;8.500;2024-02-28T01:51:24;5.79;76.95
9723;DHT22;4900;49.306;8.500;2024-02-28T01:53:52;5.79;77.18
9723;DHT22;4900;49.306;8.500;2024-02-28T01:56:20;5.77;77.27
9723;DHT22;4900;49.306;8.500;2024-02-28T01:58:48;5.77;77.27
9723;DHT22;4900;49.306;8.500;2024-02-28T02:01:14;5.78;77.47
9723;DHT22;4900;49.306;8.500;2024-02-28T02:03:40;5.74;77.78
9723;DHT22;4900;49.306;8.500;2024-02-28T02:06:05;5.79;77.67
9723;DHT22;4900;49.306;8.500;2024-02-28T02:08:32;5.78;77.84
9723;DHT22;4900;49.306;8.500;2024-02-28T02:10:58;5.79;77.72
9723;DHT22;4900;49.306;8.500;2024-02-28T02:13:24;5.73;77.74
9723;DHT22;4900;49.306;8.500;2024-02-28T02:15:50;5.74;77.74
9723;DHT22;4900;49.306;8.500;2024-02-28T02:18:15;5.68;77.99
9723;DHT22;4900;49.306;8.500;2024-02-28T02:20:44;5.71;78.01
9723;DHT22;4900;49.306;8.500;2024-02-28T02:23:11;5.74;77.86
9723;DHT22;4900;49.306;8.500;2024-02-28T02:25:47;5.68;77.80
9723;DHT22;4900;49.306;8.500;2024-02-28T02:28:14;5.73;77.57
9723;DHT22;4900;49.306;8.500;2024-02-28T02:30:40;5.70;77.37
9723;DHT22;4900;49.306;8.500;2024-02-28T02:33:06;5.66;77.63
9723;DHT22;4900;49.306;8.500;2024-02-28T02:35:33;5.61;77.59
9723;DHT22;4900;49.306;8.500;2024-02-28T02:37:59;5.57;77.76
9723;DHT22;4900;49.306;8.500;2024-02-28T02:40:24;5.54;77.79
9723;DHT22;4900;49.306;8.500;2024-02-28T02:42:50;5.54;77.85
9723;DHT22;4900;49.306;8.500;2024-02-28T02:45:16;5.51;77.73
9723;DHT22;4900;49.306;8.500;2024-02-28T02:47:41;5.48;77.97
9723;DHT22;4900;49.306;8.500;2024-02-28T02:50:09;5.50;77.79
9723;DHT22;4900;49.306;8.500;2024-02-28T02:52:35;5.46;77.87
9723;DHT22;4900;49.306;8.500;2024-02-28T02:55:00;5.47;77.93
9723;DHT22;4900;49.306;8.500;2024-02-28T02:57:27;5.44;77.97
9723;DHT22;4900;49.306;8.500;2024-02-28T02:59:52;5.47;77.93
9723;DHT22;4900;49.306;8.500;2024-02-28T03:02:18;5.47;77.96
9723;DHT22;4900;49.306;8.500;2024-02-28T03:04:44;5.44;77.90
9723;DHT22;4900;49.306;8.500;2024-02-28T03:07:10;5.48;77.71
9723;DHT22;4900;49.306;8.500;2024-02-28T03:09:35;5.48;77.47
9723;DHT22;4900;49.306;8.500;2024-02-28T03:12:00;5.48;77.24
9723;DHT22;4900;49.306;8.500;2024-02-28T03:14:26;5.44;76.99
9723;DHT22;4900;49.306;8.500;2024-02-28T03:16:53;5.43;76.76
9723;DHT22;4900;49.306;8.500;2024-02-28T03:19:19;5.43;76.53
9723;DHT22;4900;49.306;8.500;2024-02-28T03:21:45;5.36;76.26
9723;DHT22;4900;49.306;8.500;2024-02-28T03:24:10;5.33;75.97
9723;DHT22;4900;49.306;8.500;2024-02-28T03:26:36;5.29;75.67
9723;DHT22;4900;49.306;8.500;2024-02-28T03:29:02;5.23;75.33
9723;DHT22;4900;49.306;8.500;2024-02-28T03:31:28;5.16;75.19
9723;DHT22;4900;49.306;8.500;2024-02-28T03:33:53;5.06;74.96
9723;DHT22;4900;49.306;8.500;2024-02-28T03:36:18;4.98;74.96
9723;DHT22;4900;49.306;8.500;2024-02-28T03:38:44;4.95;75.02
9723;DHT22;4900;49.306;8.500;2024-02-28T03:41:09;4.91;75.03
9723;DHT22;4900;49.306;8.500;2024-02-28T03:43:35;4.89;75.04
9723;DHT22;4900;49.306;8.500;2024-02-28T03:46:00;4.87;75.21
9723;DHT22;4900;49.306;8.500;2024-02-28T03:48:26;4.87;75.80
9723;DHT22;4900;49.306;8.500;2024-02-28T03:50:51;4.84;76.22
9723;DHT22;4900;49.306;8.500;2024-02-28T03:53:17;4.83;76.59
9723;DHT22;4900;49.306;8.500;2024-02-28T03:55:42;4.83;76.60
9723;DHT22;4900;49.306;8.500;2024-02-28T03:58:10;4.81;76.95
9723;DHT22;4900;49.306;8.500;2024-02-28T04:00:35;4.81;76.90
9723;DHT22;4900;49.306;8.500;2024-02-28T04:03:01;4.77;77.36
9723;DHT22;4900;49.306;8.500;2024-02-28T04:05:28;4.74;77.79
9723;DHT22;4900;49.306;8.500;2024-02-28T04:07:53;4.80;77.85
9723;DHT22;4900;49.306;8.500;2024-02-28T04:10:19;4.78;77.87
9723;DHT22;4900;49.306;8.500;2024-02-28T04:12:46;4.77;77.94
9723;DHT22;4900;49.306;8.500;2024-02-28T04:15:12;4.76;78.11
9723;DHT22;4900;49.306;8.500;2024-02-28T04:17:40;4.78;78.08
9723;DHT22;4900;49.306;8.500;2024-02-28T04:20:12;4.77;77.94
9723;DHT22;4900;49.306;8.500;2024-02-28T04:22:38;4.74;77.58
9723;DHT22;4900;49.306;8.500;2024-02-28T04:25:07;4.73;77.48
9723;DHT22;4900;49.306;8.500;2024-02-28T04:27:34;4.73;77.42
9723;DHT22;4900;49.306;8.500;2024-02-28T04:29:59;4.70;77.41
9723;DHT22;4900;49.306;8.500;2024-02-28T04:32:25;4.70;77.20
9723;DHT22;4900;49.306;8.500;2024-02-28T04:34:51;4.66;76.88
9723;DHT22;4900;49.306;8.500;2024-02-28T04:37:17;4.67;76.58
9723;DHT22;4900;49.306;8.500;2024-02-28T04:39:42;4.61;76.46
9723;DHT22;4900;49.306;8.500;2024-02-28T04:42:08;4.63;76.40
9723;DHT22;4900;49.306;8.500;2024-02-28T04:44:33;4.60;76.36
9723;DHT22;4900;49.306;8.500;2024-02-28T04:46:59;4.61;76.13
9723;DHT22;4900;49.306;8.500;2024-02-28T04:49:24;4.56;76.04
9723;DHT22;4900;49.306;8.500;2024-02-28T04:51:49;4.53;75.98
9723;DHT22;4900;49.306;8.500;2024-02-28T04:54:16;4.52;75.95
9723;DHT22;4900;49.306;8.500;2024-02-28T04:56:42;4.50;75.92
9723;DHT22;4900;49.306;8.500;2024-02-28T04:59:11;4.46;75.78
9723;DHT22;4900;49.306;8.500;2024-02-28T05:01:36;4.43;75.77
9723;DHT22;4900;49.306;8.500;2024-02-28T05:04:06;4.40;75.63
9723;DHT22;4900;49.306;8.500;2024-02-28T05:06:31;4.36;75.58
9723;DHT22;4900;49.306;8.500;2024-02-28T05:08:57;4.35;75.52
9723;DHT22;4900;49.306;8.500;2024-02-28T05:11:22;4.29;75.37
9723;DHT22;4900;49.306;8.500;2024-02-28T05:13:48;4.25;75.19
9723;DHT22;4900;49.306;8.500;2024-02-28T05:16:14;4.21;74.96
9723;DHT22;4900;49.306;8.500;2024-02-28T05:18:40;4.12;74.93
9723;DHT22;4900;49.306;8.500;2024-02-28T05:21:05;4.11;74.88
9723;DHT22;4900;49.306;8.500;2024-02-28T05:23:30;4.07;74.89
9723;DHT22;4900;49.306;8.500;2024-02-28T05:25:56;4.02;74.98
9723;DHT22;4900;49.306;8.500;2024-02-28T05:28:22;4.01;75.07
9723;DHT22;4900;49.306;8.500;2024-02-28T05:30:48;4.02;75.06
9723;DHT22;4900;49.306;8.500;2024-02-28T05:33:13;4.02;75.23
9723;DHT22;4900;49.306;8.500;2024-02-28T05:35:39;3.99;75.37
9723;DHT22;4900;49.306;8.500;2024-02-28T05:38:04;3.98;75.38
9723;DHT22;4900;49.306;8.500;2024-02-28T05:40:29;3.98;75.34
9723;DHT22;4900;49.306;8.500;2024-02-28T05:42:55;3.97;75.34
9723;DHT22;4900;49.306;8.500;2024-02-28T05:45:20;3.95;75.32
9723;DHT22;4900;49.306;8.500;2024-02-28T05:47:46;3.91;75.28
9723;DHT22;4900;49.306;8.500;2024-02-28T05:50:11;3.88;75.35
9723;DHT22;4900;49.306;8.500;2024-02-28T05:52:38;3.86;75.20
9723;DHT22;4900;49.306;8.500;2024-02-28T05:55:04;3.80;75.13
9723;DHT22;4900;49.306;8.500;2024-02-28T05:57:31;3.77;75.17
9723;DHT22;4900;49.306;8.500;2024-02-28T05:59:56;3.74;75.01
9723;DHT22;4900;49.306;8.500;2024-02-28T06:02:22;3.74;74.85
9723;DHT22;4900;49.306;8.500;2024-02-28T06:04:47;3.66;74.72
9723;DHT22;4900;49.306;8.500;2024-02-28T06:07:13;3.62;74.83
9723;DHT22;4900;49.306;8.500;2024-02-28T06:09:38;3.60;74.66
9723;DHT22;4900;49.306;8.500;2024-02-28T06:12:03;3.56;74.72
9723;DHT22;4900;49.306;8.500;2024-02-28T06:14:29;3.52;74.87
9723;DHT22;4900;49.306;8.500;2024-02-28T06:16:54;3.51;75.14
9723;DHT22;4900;49.306;8.500;2024-02-28T06:19:20;3.46;75.65
9723;DHT22;4900;49.306;8.500;2024-02-28T06:21:45;3.52;75.71
9723;DHT22;4900;49.306;8.500;2024-02-28T06:24:11;3.52;75.82
9723;DHT22;4900;49.306;8.500;2024-02-28T06:26:36;3.53;75.82
9723;DHT22;4900;49.306;8.500;2024-02-28T06:29:01;3.59;75.89
9723;DHT22;4900;49.306;8.500;2024-02-28T06:31:29;3.62;76.17
9723;DHT22;4900;49.306;8.500;2024-02-28T06:33:56;3.63;76.80
9723;DHT22;4900;49.306;8.500;2024-02-28T06:36:22;3.69;76.97
9723;DHT22;4900;49.306;8.500;2024-02-28T06:38:47;3.73;76.97
9723;DHT22;4900;49.306;8.500;2024-02-28T06:41:12;3.79;76.85
9723;DHT22;4900;49.306;8.500;2024-02-28T06:43:38;3.84;76.85
9723;DHT22;4900;49.306;8.500;2024-02-28T06:46:04;3.88;76.86
9723;DHT22;4900;49.306;8.500;2024-02-28T06:48:29;3.91;77.02
9723;DHT22;4900;49.306;8.500;2024-02-28T06:50:55;3.98;77.09
9723;DHT22;4900;49.306;8.500;2024-02-28T06:53:20;4.05;77.08
9723;DHT22;4900;49.306;8.500;2024-02-28T06:55:46;4.09;77.21
9723;DHT22;4900;49.306;8.500;2024-02-28T06:58:14;4.15;77.38
9723;DHT22;4900;49.306;8.500;2024-02-28T07:00:39;4.15;77.53
9723;DHT22;4900;49.306;8.500;2024-02-28T07:03:04;4.24;77.60
9723;DHT22;4900;49.306;8.500;2024-02-28T07:05:30;4.32;77.62
9723;DHT22;4900;49.306;8.500;2024-02-28T07:07:55;4.37;77.62
9723;DHT22;4900;49.306;8.500;2024-02-28T07:10:21;4.43;77.60
9723;DHT22;4900;49.306;8.500;2024-02-28T07:12:46;4.52;77.60
9723;DHT22;4900;49.306;8.500;2024-02-28T07:15:11;4.60;77.52
9723;DHT22;4900;49.306;8.500;2024-02-28T07:17:37;4.70;77.40
9723;DHT22;4900;49.306;8.500;2024-02-28T07:20:02;4.73;77.49
9723;DHT22;4900;49.306;8.500;2024-02-28T07:22:28;4.80;77.49
9723;DHT22;4900;49.306;8.500;2024-02-28T07:24:53;4.87;77.52
9723;DHT22;4900;49.306;8.500;2024-02-28T07:27:19;4.91;77.54
9723;DHT22;4900;49.306;8.500;2024-02-28T07:29:46;4.99;77.61
9723;DHT22;4900;49.306;8.500;2024-02-28T07:32:12;5.04;77.63
9723;DHT22;4900;49.306;8.500;2024-02-28T07:34:37;5.13;77.54
9723;DHT22;4900;49.306;8.500;2024-02-28T07:37:03;5.19;77.63
9723;DHT22;4900;49.306;8.500;2024-02-28T07:39:28;5.27;77.50
9723;DHT22;4900;49.306;8.500;2024-02-28T07:41:54;5.36;77.41
9723;DHT22;4900;49.306;8.500;2024-02-28T07:44:19;5.44;77.35
9723;DHT22;4900;49.306;8.500;2024-02-28T07:46:44;5.56;77.25
9723;DHT22;4900;49.306;8.500;2024-02-28T07:49:10;5.66;77.14
9723;DHT22;4900;49.306;8.500;2024-02-28T07:51:36;5.74;77.18
9723;DHT22;4900;49.306;8.500;2024-02-28T07:54:02;5.82;77.17
9723;DHT22;4900;49.306;8.500;2024-02-28T07:56:29;5.94;77.07
9723;DHT22;4900;49.306;8.500;2024-02-28T07:58:54;6.15;77.03
9723;DHT22;4900;49.306;8.500;2024-02-28T08:01:20;6.44;76.61
9723;DHT22;4900;49.306;8.500;2024-02-28T08:03:47;6.77;75.93
9723;DHT22;4900;49.306;8.500;2024-02-28T08:06:13;7.00;75.40
9723;DHT22;4900;49.306;8.500;2024-02-28T08:08:39;7.26;75.37
9723;DHT22;4900;49.306;8.500;2024-02-28T08:11:04;7.48;75.23
9723;DHT22;4900;49.306;8.500;2024-02-28T08:13:30;7.66;74.25
9723;DHT22;4900;49.306;8.500;2024-02-28T08:15:58;7.74;74.22
9723;DHT22;4900;49.306;8.500;2024-02-28T08:18:23;7.96;73.75
9723;DHT22;4900;49.306;8.500;2024-02-28T08:20:48;8.14;73.60
9723;DHT22;4900;49.306;8.500;2024-02-28T08:23:15;8.41;73.38
9723;DHT22;4900;49.306;8.500;2024-02-28T08:25:40;8.72;72.66
9723;DHT22;4900;49.306;8.500;2024-02-28T08:28:06;8.69;72.24
9723;DHT22;4900;49.306;8.500;2024-02-28T08:30:31;8.99;72.43
9723;DHT22;4900;49.306;8.500;2024-02-28T08:32:59;9.18;71.77
9723;DHT22;4900;49.306;8.500;2024-02-28T08:35:24;9.30;70.81
9723;DHT22;4900;49.306;8.500;2024-02-28T08:37:50;9.58;70.37
9723;DHT22;4900;49.306;8.500;2024-02-28T08:40:15;9.82;69.67
9723;DHT22;4900;49.306;8.500;2024-02-28T08:42:41;9.89;69.57
9723;DHT22;4900;49.306;8.500;2024-02-28T08:45:07;9.93;69.37
9723;DHT22;4900;49.306;8.500;2024-02-28T08:47:33;10.10;69.30
9723;DHT22;4900;49.306;8.500;2024-02-28T08:49:59;9.96;69.21
9723;DHT22;4900;49.306;8.500;2024-02-28T08:52:25;10.24;69.28
9723;DHT22;4900;49.306;8.500;2024-02-28T08:54:50;10.34;68.73
9723;DHT22;4900;49.306;8.500;2024-02-28T08:57:15;10.50;68.10
9723;DHT22;4900;49.306;8.500;2024-02-28T08:59:41;10.70;67.82
9723;DHT22;4900;49.306;8.500;2024-02-28T09:02:07;10.97;67.22
9723;DHT22;4900;49.306;8.500;2024-02-28T09:04:33;11.21;66.56
9723;DHT22;4900;49.306;8.500;2024-02-28T09:06:58;11.22;66.84
9723;DHT22;4900;49.306;8.500;2024-02-28T09:09:24;11.34;66.78
9723;DHT22;4900;49.306;8.500;2024-02-28T09:11:50;11.59;65.68
9723;DHT22;4900;49.306;8.500;2024-02-28T09:14:15;11.49;66.10
9723;DHT22;4900;49.306;8.500;2024-02-28T09:16:41;11.49;66.58
9723;DHT22;4900;49.306;8.500;2024-02-28T09:19:06;11.56;65.77
9723;DHT22;4900;49.306;8.500;2024-02-28T09:21:31;11.59;65.95
9723;DHT22;4900;49.306;8.500;2024-02-28T09:23:57;11.76;66.29
9723;DHT22;4900;49.306;8.500;2024-02-28T09:26:22;11.97;65.53
9723;DHT22;4900;49.306;8.500;2024-02-28T09:28:49;11.95;65.36
9723;DHT22;4900;49.306;8.500;2024-02-28T09:31:14;12.11;64.69
9723;DHT22;4900;49.306;8.500;2024-02-28T09:33:42;12.05;64.40
9723;DHT22;4900;49.306;8.500;2024-02-28T09:36:08;12.04;64.36
9723;DHT22;4900;49.306;8.500;2024-02-28T09:38:33;12.05;64.35
9723;DHT22;4900;49.306;8.500;2024-02-28T09:41:00;12.31;64.02
9723;DHT22;4900;49.306;8.500;2024-02-28T09:46:05;12.84;62.76
9723;DHT22;4900;49.306;8.500;2024-02-28T09:48:35;13.15;61.68
9723;DHT22;4900;49.306;8.500;2024-02-28T09:51:01;13.35;61.57
9723;DHT22;4900;49.306;8.500;2024-02-28T09:53:27;13.49;61.26
9723;DHT22;4900;49.306;8.500;2024-02-28T09:55:52;13.77;60.52
9723;DHT22;4900;49.306;8.500;2024-02-28T09:58:18;13.88;59.44
9723;DHT22;4900;49.306;8.500;2024-02-28T10:00:46;14.11;59.29
9723;DHT22;4900;49.306;8.500;2024-02-28T10:03:18;14.21;58.67
9723;DHT22;4900;49.306;8.500;2024-02-28T10:05:46;14.33;58.58
9723;DHT22;4900;49.306;8.500;2024-02-28T10:08:11;14.67;57.81
9723;DHT22;4900;49.306;8.500;2024-02-28T10:10:38;14.92;56.90
9723;DHT22;4900;49.306;8.500;2024-02-28T10:13:05;15.25;56.26
9723;DHT22;4900;49.306;8.500;2024-02-28T10:15:30;15.12;56.23
9723;DHT22;4900;49.306;8.500;2024-02-28T10:17:56;15.08;55.89
9723;DHT22;4900;49.306;8.500;2024-02-28T10:20:22;14.99;56.06
9723;DHT22;4900;49.306;8.500;2024-02-28T10:22:47;14.84;55.92
9723;DHT22;4900;49.306;8.500;2024-02-28T10:25:13;14.63;55.39
9723;DHT22;4900;49.306;8.500;2024-02-28T10:27:39;14.61;56.64
9723;DHT22;4900;49.306;8.500;2024-02-28T10:30:05;14.87;55.68
9723;DHT22;4900;49.306;8.500;2024-02-28T10:32:31;14.95;55.76
9723;DHT22;4900;49.306;8.500;2024-02-28T10:34:59;15.09;55.40
9723;DHT22;4900;49.306;8.500;2024-02-28T10:37:28;15.16;55.11
9723;DHT22;4900;49.306;8.500;2024-02-28T10:39:54;15.49;54.91
9723;DHT22;4900;49.306;8.500;2024-02-28T10:42:21;15.88;55.27
9723;DHT22;4900;49.306;8.500;2024-02-28T10:44:48;16.34;54.20
9723;DHT22;4900;49.306;8.500;2024-02-28T10:47:17;16.74;53.23
9723;DHT22;4900;49.306;8.500;2024-02-28T10:49:43;16.89;51.95
9723;DHT22;4900;49.306;8.500;2024-02-28T10:52:11;17.23;53.12
9723;DHT22;4900;49.306;8.500;2024-02-28T10:54:40;17.13;51.73
9723;DHT22;4900;49.306;8.500;2024-02-28T10:57:08;16.96;51.37
9723;DHT22;4900;49.306;8.500;2024-02-28T10:59:35;16.69;50.92
9723;DHT22;4900;49.306;8.500;2024-02-28T11:02:02;16.58;51.87
9723;DHT22;4900;49.306;8.500;2024-02-28T11:04:29;16.37;51.93
9723;DHT22;4900;49.306;8.500;2024-02-28T11:06:56;16.06;52.74
9723;DHT22;4900;49.306;8.500;2024-02-28T11:09:22;15.98;52.81
9723;DHT22;4900;49.306;8.500;2024-02-28T11:11:51;15.71;53.50
9723;DHT22;4900;49.306;8.500;2024-02-28T11:14:18;15.75;53.58
9723;DHT22;4900;49.306;8.500;2024-02-28T11:16:48;15.85;53.27
9723;DHT22;4900;49.306;8.500;2024-02-28T11:19:24;16.18;53.61
9723;DHT22;4900;49.306;8.500;2024-02-28T11:21:56;16.54;53.55
9723;DHT22;4900;49.306;8.500;2024-02-28T11:24:29;16.71;52.91
9723;DHT22;4900;49.306;8.500;2024-02-28T11:26:56;17.09;52.57
9723;DHT22;4900;49.306;8.500;2024-02-28T11:29:25;17.60;51.60
9723;DHT22;4900;49.306;8.500;2024-02-28T11:31:51;18.03;51.30
9723;DHT22;4900;49.306;8.500;2024-02-28T11:34:17;18.50;50.44
9723;DHT22;4900;49.306;8.500;2024-02-28T11:36:42;18.72;48.85
9723;DHT22;4900;49.306;8.500;2024-02-28T11:39:08;18.72;46.86
9723;DHT22;4900;49.306;8.500;2024-02-28T11:41:33;19.00;47.82
9723;DHT22;4900;49.306;8.500;2024-02-28T11:43:59;18.96;46.79
9723;DHT22;4900;49.306;8.500;2024-02-28T11:46:26;18.95;46.78
9723;DHT22;4900;49.306;8.500;2024-02-28T11:49:03;19.16;46.32
9723;DHT22;4900;49.306;8.500;2024-02-28T11:51:30;19.04;46.72
9723;DHT22;4900;49.306;8.500;2024-02-28T11:53:57;19.31;46.55
9723;DHT22;4900;49.306;8.500;2024-02-28T11:56:26;18.98;46.48
9723;DHT22;4900;49.306;8.500;2024-02-28T11:58:54;18.99;46.49
9723;DHT22;4900;49.306;8.500;2024-02-28T12:01:41;18.92;47.04
9723;DHT22;4900;49.306;8.500;2024-02-28T12:04:09;19.03;46.30
9723;DHT22;4900;49.306;8.500;2024-02-28T12:06:35;18.98;45.45
9723;DHT22;4900;49.306;8.500;2024-02-28T12:09:02;19.13;45.71
9723;DHT22;4900;49.306;8.500;2024-02-28T12:11:29;19.23;45.94
9723;DHT22;4900;49.306;8.500;2024-02-28T12:13:55;19.47;45.67
9723;DHT22;4900;49.306;8.500;2024-02-28T12:16:26;19.67;45.43
9723;DHT22;4900;49.306;8.500;2024-02-28T12:18:53;19.78;46.52
9723;DHT22;4900;49.306;8.500;2024-02-28T12:21:19;19.83;46.40
9723;DHT22;4900;49.306;8.500;2024-02-28T12:23:46;19.95;44.99
9723;DHT22;4900;49.306;8.500;2024-02-28T12:26:12;20.03;45.81
9723;DHT22;4900;49.306;8.500;2024-02-28T12:28:37;20.09;44.50
9723;DHT22;4900;49.306;8.500;2024-02-28T12:31:03;20.12;44.68
9723;DHT22;4900;49.306;8.500;2024-02-28T12:33:30;19.86;44.24
9723;DHT22;4900;49.306;8.500;2024-02-28T12:35:55;19.93;44.82
9723;DHT22;4900;49.306;8.500;2024-02-28T12:38:21;19.81;44.36
9723;DHT22;4900;49.306;8.500;2024-02-28T12:40:48;19.79;44.71
9723;DHT22;4900;49.306;8.500;2024-02-28T12:43:13;19.93;44.18
9723;DHT22;4900;49.306;8.500;2024-02-28T12:45:39;19.92;44.38
9723;DHT22;4900;49.306;8.500;2024-02-28T12:48:05;19.96;43.51
9723;DHT22;4900;49.306;8.500;2024-02-28T12:50:31;20.06;43.59
9723;DHT22;4900;49.306;8.500;2024-02-28T12:52:59;20.14;43.87
9723;DHT22;4900;49.306;8.500;2024-02-28T12:55:25;20.31;43.84
9723;DHT22;4900;49.306;8.500;2024-02-28T12:57:51;20.33;43.85
9723;DHT22;4900;49.306;8.500;2024-02-28T13:00:16;20.44;43.60
9723;DHT22;4900;49.306;8.500;2024-02-28T13:02:42;20.47;43.34
9723;DHT22;4900;49.306;8.500;2024-02-28T13:05:09;20.62;44.05
9723;DHT22;4900;49.306;8.500;2024-02-28T13:07:35;20.88;43.81
9723;DHT22;4900;49.306;8.500;2024-02-28T13:10:01;20.48;43.23
9723;DHT22;4900;49.306;8.500;2024-02-28T13:12:30;20.61;43.18
9723;DHT22;4900;49.306;8.500;2024-02-28T13:14:55;20.72;43.51
9723;DHT22;4900;49.306;8.500;2024-02-28T13:17:21;20.67;43.71
9723;DHT22;4900;49.306;8.500;2024-02-28T13:19:47;20.75;43.51
9723;DHT22;4900;49.306;8.500;2024-02-28T13:22:12;20.98;43.32
9723;DHT22;4900;49.306;8.500;2024-02-28T13:24:38;20.99;43.14
9723;DHT22;4900;49.306;8.500;2024-02-28T13:27:03;20.75;43.15
9723;DHT22;4900;49.306;8.500;2024-02-28T13:29:29;20.79;42.82
9723;DHT22;4900;49.306;8.500;2024-02-28T13:31:56;20.57;43.19
9723;DHT22;4900;49.306;8.500;2024-02-28T13:34:21;20.59;42.81
9723;DHT22;4900;49.306;8.500;2024-02-28T13:36:47;20.89;43.65
9723;DHT22;4900;49.306;8.500;2024-02-28T13:39:12;21.10;43.10
9723;DHT22;4900;49.306;8.500;2024-02-28T13:41:39;20.98;42.09
9723;DHT22;4900;49.306;8.500;2024-02-28T13:44:04;20.72;42.46
9723;DHT22;4900;49.306;8.500;2024-02-28T13:46:30;20.88;42.07
9723;DHT22;4900;49.306;8.500;2024-02-28T13:48:57;20.95;42.36
9723;DHT22;4900;49.306;8.500;2024-02-28T13:51:23;20.89;42.35
9723;DHT22;4900;49.306;8.500;2024-02-28T13:53:49;20.78;42.70
9723;DHT22;4900;49.306;8.500;2024-02-28T13:56:17;20.81;42.86
9723;DHT22;4900;49.306;8.500;2024-02-28T13:58:43;21.09;42.78
9723;DHT22;4900;49.306;8.500;2024-02-28T14:01:09;21.19;42.30
9723;DHT22;4900;49.306;8.500;2024-02-28T14:03:35;20.99;41.69
9723;DHT22;4900;49.306;8.500;2024-02-28T14:06:01;21.17;42.09
9723;DHT22;4900;49.306;8.500;2024-02-28T14:08:27;21.26;41.68
9723;DHT22;4900;49.306;8.500;2024-02-28T14:10:53;21.23;41.29
9723;DHT22;4900;49.306;8.500;2024-02-28T14:13:18;21.23;41.88
9723;DHT22;4900;49.306;8.500;2024-02-28T14:15:44;21.41;42.12
9723;DHT22;4900;49.306;8.500;2024-02-28T14:18:11;21.50;41.75
9723;DHT22;4900;49.306;8.500;2024-02-28T14:20:37;21.47;41.47
9723;DHT22;4900;49.306;8.500;2024-02-28T14:23:04;21.47;41.92
9723;DHT22;4900;49.306;8.500;2024-02-28T14:25:30;21.38;42.27
9723;DHT22;4900;49.306;8.500;2024-02-28T14:27:56;21.33;42.22
9723;DHT22;4900;49.306;8.500;2024-02-28T14:30:21;21.31;41.92
9723;DHT22;4900;49.306;8.500;2024-02-28T14:32:47;21.37;42.19
9723;DHT22;4900;49.306;8.500;2024-02-28T14:35:14;21.48;41.85
9723;DHT22;4900;49.306;8.500;2024-02-28T14:37:40;21.61;42.20
9723;DHT22;4900;49.306;8.500;2024-02-28T14:40:07;21.79;41.65
9723;DHT22;4900;49.306;8.500;2024-02-28T14:42:42;21.82;41.27
9723;DHT22;4900;49.306;8.500;2024-02-28T14:45:12;21.81;40.77
9723;DHT22;4900;49.306;8.500;2024-02-28T14:47:41;21.86;40.84
9723;DHT22;4900;49.306;8.500;2024-02-28T14:50:07;21.74;41.12
9723;DHT22;4900;49.306;8.500;2024-02-28T14:52:39;21.58;40.04
9723;DHT22;4900;49.306;8.500;2024-02-28T14:55:06;21.54;40.75
9723;DHT22;4900;49.306;8.500;2024-02-28T14:57:32;21.46;40.55
9723;DHT22;4900;49.306;8.500;2024-02-28T14:59:58;21.19;41.44
9723;DHT22;4900;49.306;8.500;2024-02-28T15:02:23;21.11;40.31
9723;DHT22;4900;49.306;8.500;2024-02-28T15:04:49;20.88;39.93
9723;DHT22;4900;49.306;8.500;2024-02-28T15:07:15;20.57;40.08
9723;DHT22;4900;49.306;8.500;2024-02-28T15:09:41;20.40;40.44
9723;DHT22;4900;49.306;8.500;2024-02-28T15:12:07;20.23;41.41
9723;DHT22;4900;49.306;8.500;2024-02-28T15:14:33;20.17;41.73
9723;DHT22;4900;49.306;8.500;2024-02-28T15:16:59;20.16;42.41
9723;DHT22;4900;49.306;8.500;2024-02-28T15:19:25;20.12;41.11
9723;DHT22;4900;49.306;8.500;2024-02-28T15:21:52;20.05;41.24
9723;DHT22;4900;49.306;8.500;2024-02-28T15:24:18;20.03;41.19
9723;DHT22;4900;49.306;8.500;2024-02-28T15:26:43;20.05;41.75
9723;DHT22;4900;49.306;8.500;2024-02-28T15:29:09;20.01;41.88
9723;DHT22;4900;49.306;8.500;2024-02-28T15:31:34;19.96;42.06
9723;DHT22;4900;49.306;8.500;2024-02-28T15:34:01;19.83;41.87
9723;DHT22;4900;49.306;8.500;2024-02-28T15:36:27;19.76;42.48
9723;DHT22;4900;49.306;8.500;2024-02-28T15:38:53;19.53;41.96
9723;DHT22;4900;49.306;8.500;2024-02-28T15:41:18;19.43;42.49
9723;DHT22;4900;49.306;8.500;2024-02-28T15:43:44;19.46;43.03
9723;DHT22;4900;49.306;8.500;2024-02-28T15:46:11;19.57;42.74
9723;DHT22;4900;49.306;8.500;2024-02-28T15:48:36;19.61;42.57
9723;DHT22;4900;49.306;8.500;2024-02-28T15:51:02;19.67;41.79
9723;DHT22;4900;49.306;8.500;2024-02-28T15:53:28;19.53;41.10
9723;DHT22;4900;49.306;8.500;2024-02-28T15:55:54;19.37;42.03
9723;DHT22;4900;49.306;8.500;2024-02-28T15:58:19;19.29;42.37
9723;DHT22;4900;49.306;8.500;2024-02-28T16:00:46;19.14;42.73
9723;DHT22;4900;49.306;8.500;2024-02-28T16:03:11;19.04;43.02
9723;DHT22;4900;49.306;8.500;2024-02-28T16:05:37;18.93;42.83